createdAt,value
2017-08-25T00:01:09.040Z,17.30
2017-08-25T00:03:37.329Z,17.30
2017-08-25T00:06:05.600Z,17.20
2017-08-25T00:08:34.016Z,17.10
2017-08-25T00:11:02.280Z,17.10
2017-08-25T00:13:30.555Z,17.10
2017-08-25T00:15:59.600Z,17.00
2017-08-25T00:18:27.864Z,17.00
2017-08-25T00:20:56.249Z,17.00
2017-08-25T00:23:24.515Z,16.90
2017-08-25T00:25:52.792Z,16.90
2017-08-25T00:28:21.861Z,16.90
2017-08-25T00:30:50.136Z,16.90
2017-08-25T00:33:18.451Z,17.10
2017-08-25T00:35:47.132Z,17.20
2017-08-25T00:38:15.401Z,17.30
2017-08-25T00:40:43.679Z,17.40
2017-08-25T00:43:11.952Z,17.30
2017-08-25T00:45:40.402Z,17.40
2017-08-25T00:48:09.433Z,17.40
2017-08-25T00:50:37.700Z,17.30
2017-08-25T00:53:06.006Z,17.30
2017-08-25T00:55:34.319Z,17.20
2017-08-25T00:58:02.612Z,17.10
2017-08-25T01:00:30.884Z,17.10
2017-08-25T01:02:59.153Z,17.20
2017-08-25T01:05:27.443Z,17.30
2017-08-25T01:07:55.717Z,17.30
2017-08-25T01:10:24.200Z,17.30
2017-08-25T01:12:52.463Z,17.40
2017-08-25T01:15:20.744Z,17.50
2017-08-25T01:17:49.034Z,17.40
2017-08-25T01:20:18.075Z,17.30
2017-08-25T01:22:46.380Z,17.20
2017-08-25T01:25:14.668Z,17.20
2017-08-25T01:27:42.940Z,17.10
2017-08-25T01:30:11.228Z,17.00
2017-08-25T01:32:39.495Z,16.90
2017-08-25T01:35:08.180Z,17.00
2017-08-25T01:37:37.227Z,17.00
2017-08-25T01:40:05.480Z,16.90
2017-08-25T01:42:33.784Z,17.00
2017-08-25T01:45:02.820Z,17.00
2017-08-25T01:47:31.136Z,16.90
2017-08-25T01:49:59.403Z,16.90
2017-08-25T01:52:27.676Z,16.80
2017-08-25T01:54:56.101Z,16.90
2017-08-25T01:57:24.372Z,16.80
2017-08-25T01:59:52.683Z,16.70
2017-08-25T02:02:20.947Z,16.60
2017-08-25T02:04:49.508Z,16.70
2017-08-25T02:07:17.789Z,16.60
2017-08-25T02:09:46.060Z,16.50
2017-08-25T02:12:14.372Z,16.50
2017-08-25T02:14:42.644Z,16.50
2017-08-25T02:17:10.919Z,16.50
2017-08-25T02:19:39.204Z,16.50
2017-08-25T02:22:07.471Z,16.50
2017-08-25T02:24:35.768Z,16.50
2017-08-25T02:27:04.832Z,16.50
2017-08-25T02:29:34.012Z,16.60
2017-08-25T02:32:03.039Z,16.70
2017-08-25T02:34:31.647Z,16.70
2017-08-25T02:36:59.935Z,16.80
2017-08-25T02:39:28.981Z,16.80
2017-08-25T02:41:57.472Z,16.70
2017-08-25T02:44:25.744Z,16.80
2017-08-25T02:46:54.020Z,16.80
2017-08-25T02:49:22.316Z,16.70
2017-08-25T02:51:50.577Z,16.60
2017-08-25T02:54:18.889Z,16.50
2017-08-25T02:56:47.151Z,16.50
2017-08-25T02:59:16.187Z,16.50
2017-08-25T03:01:44.467Z,16.40
2017-08-25T03:04:12.740Z,16.30
2017-08-25T03:06:41.205Z,16.30
2017-08-25T03:09:09.464Z,16.20
2017-08-25T03:11:38.496Z,16.10
2017-08-25T03:14:06.793Z,16.10
2017-08-25T03:16:35.064Z,16.10
2017-08-25T03:19:04.140Z,16.20
2017-08-25T03:21:32.404Z,16.20
2017-08-25T03:24:01.439Z,16.10
2017-08-25T03:26:29.719Z,16.10
2017-08-25T03:28:57.992Z,16.10
2017-08-25T03:31:26.291Z,16.10
2017-08-25T03:33:54.572Z,16.20
2017-08-25T03:36:22.843Z,16.30
2017-08-25T03:38:51.504Z,16.20
2017-08-25T03:41:19.779Z,16.20
2017-08-25T03:43:48.096Z,16.20
2017-08-25T03:46:17.151Z,16.10
2017-08-25T03:48:46.176Z,16.10
2017-08-25T03:51:14.467Z,16.00
2017-08-25T03:53:42.719Z,16.00
2017-08-25T03:56:11.234Z,15.90
2017-08-25T03:58:39.492Z,15.90
2017-08-25T04:01:07.755Z,16.00
2017-08-25T04:03:36.817Z,15.80
2017-08-25T04:06:05.093Z,15.80
2017-08-25T04:08:33.384Z,15.80
2017-08-25T04:11:01.653Z,15.70
2017-08-25T04:13:29.932Z,15.60
2017-08-25T04:15:58.232Z,15.60
2017-08-25T04:18:26.508Z,15.60
2017-08-25T04:20:55.267Z,15.60
2017-08-25T04:23:23.539Z,15.50
2017-08-25T04:25:51.811Z,15.50
2017-08-25T04:28:20.192Z,15.50
2017-08-25T04:30:48.476Z,15.50
2017-08-25T04:33:16.781Z,15.40
2017-08-25T04:35:45.060Z,15.50
2017-08-25T04:38:16.174Z,15.60
2017-08-25T04:40:45.234Z,15.60
2017-08-25T04:43:13.508Z,15.50
2017-08-25T04:45:41.788Z,15.60
2017-08-25T04:48:10.049Z,15.60
2017-08-25T04:50:38.372Z,15.70
2017-08-25T04:53:06.635Z,15.70
2017-08-25T04:55:34.912Z,15.70
2017-08-25T04:58:03.195Z,15.80
2017-08-25T05:00:31.468Z,15.80
2017-08-25T05:02:59.776Z,15.80
2017-08-25T05:05:28.051Z,15.80
2017-08-25T05:07:56.328Z,15.90
2017-08-25T05:10:24.612Z,16.00
2017-08-25T05:12:52.881Z,16.10
2017-08-25T05:15:21.176Z,16.20
2017-08-25T05:17:49.440Z,16.30
2017-08-25T05:20:17.703Z,16.40
2017-08-25T05:22:45.990Z,16.40
2017-08-25T05:25:14.265Z,16.50
2017-08-25T05:27:42.556Z,16.50
2017-08-25T05:30:11.596Z,16.60
2017-08-25T05:32:39.864Z,16.60
2017-08-25T05:35:08.162Z,16.60
2017-08-25T05:37:36.433Z,16.60
2017-08-25T05:40:05.484Z,16.80
2017-08-25T05:42:33.784Z,16.70
2017-08-25T05:45:02.047Z,16.90
2017-08-25T05:47:30.335Z,17.00
2017-08-25T05:49:58.611Z,17.00
2017-08-25T05:52:26.875Z,17.10
2017-08-25T05:54:55.159Z,17.20
2017-08-25T05:57:23.429Z,17.30
2017-08-25T05:59:51.700Z,17.40
2017-08-25T06:02:20.755Z,17.50
2017-08-25T06:04:49.053Z,17.40
2017-08-25T06:07:17.307Z,17.60
2017-08-25T06:09:46.359Z,17.80
2017-08-25T06:12:14.624Z,17.70
2017-08-25T06:14:42.936Z,17.80
2017-08-25T06:17:11.290Z,17.90
2017-08-25T06:19:39.559Z,17.90
2017-08-25T06:22:07.832Z,18.00
2017-08-25T06:24:36.116Z,18.10
2017-08-25T06:27:04.409Z,18.10
2017-08-25T06:29:33.463Z,18.20
2017-08-25T06:32:01.727Z,18.10
2017-08-25T06:34:30.015Z,18.30
2017-08-25T06:36:58.394Z,18.30
2017-08-25T06:39:26.680Z,18.40
2017-08-25T06:41:54.948Z,18.50
2017-08-25T06:44:23.264Z,18.50
2017-08-25T06:46:51.540Z,18.50
2017-08-25T06:49:19.808Z,18.60
2017-08-25T06:51:48.096Z,18.70
2017-08-25T06:54:16.372Z,18.80
2017-08-25T06:56:44.656Z,18.90
2017-08-25T06:59:12.920Z,19.00
2017-08-25T07:01:41.973Z,19.10
2017-08-25T07:04:10.246Z,19.10
2017-08-25T07:06:38.543Z,19.20
2017-08-25T07:09:06.816Z,19.30
2017-08-25T07:11:35.087Z,19.50
2017-08-25T07:14:03.372Z,19.70
2017-08-25T07:16:31.644Z,19.90
2017-08-25T07:18:59.929Z,20.00
2017-08-25T07:21:29.465Z,20.10
2017-08-25T07:23:57.755Z,20.00
2017-08-25T07:26:26.032Z,20.20
2017-08-25T07:28:54.344Z,20.40
2017-08-25T07:31:22.613Z,20.40
2017-08-25T07:33:50.893Z,20.50
2017-08-25T07:36:19.180Z,20.60
2017-08-25T07:38:47.449Z,20.70
2017-08-25T07:41:15.789Z,20.80
2017-08-25T07:43:44.816Z,20.70
2017-08-25T07:46:13.093Z,20.60
2017-08-25T07:48:41.379Z,20.70
2017-08-25T07:51:09.649Z,20.80
2017-08-25T07:53:37.936Z,20.80
2017-08-25T07:56:06.198Z,21.10
2017-08-25T07:58:35.236Z,21.30
2017-08-25T08:01:03.532Z,21.30
2017-08-25T08:03:31.811Z,21.40
2017-08-25T08:06:00.388Z,21.30
2017-08-25T08:08:28.651Z,21.30
2017-08-25T08:10:56.960Z,21.50
2017-08-25T08:13:25.227Z,21.70
2017-08-25T08:15:53.496Z,21.90
2017-08-25T08:18:21.784Z,22.10
2017-08-25T08:20:50.056Z,22.10
2017-08-25T08:23:18.427Z,22.20
2017-08-25T08:25:46.703Z,22.10
2017-08-25T08:28:14.984Z,22.20
2017-08-25T08:30:43.290Z,22.30
2017-08-25T08:33:12.326Z,22.50
2017-08-25T08:35:40.628Z,22.50
2017-08-25T08:38:08.903Z,22.60
2017-08-25T08:40:37.179Z,22.70
2017-08-25T08:43:05.467Z,22.70
2017-08-25T08:45:33.744Z,22.90
2017-08-25T08:48:02.243Z,23.10
2017-08-25T08:50:30.507Z,23.20
2017-08-25T08:52:58.812Z,23.40
2017-08-25T08:55:27.088Z,23.40
2017-08-25T08:57:55.379Z,23.40
2017-08-25T09:00:23.665Z,23.60
2017-08-25T09:02:51.948Z,23.60
2017-08-25T09:05:26.084Z,23.70
2017-08-25T09:07:54.380Z,23.80
2017-08-25T09:10:22.667Z,23.50
2017-08-25T09:12:50.931Z,23.50
2017-08-25T09:15:19.231Z,23.40
2017-08-25T09:17:47.509Z,23.50
2017-08-25T09:20:16.559Z,23.90
2017-08-25T09:22:44.840Z,23.90
2017-08-25T09:25:13.155Z,24.00
2017-08-25T09:27:41.432Z,24.30
2017-08-25T09:30:09.712Z,24.40
2017-08-25T09:32:38.007Z,24.50
2017-08-25T09:35:06.300Z,24.50
2017-08-25T09:37:34.608Z,24.80
2017-08-25T09:40:03.092Z,24.90
2017-08-25T09:42:32.176Z,24.60
2017-08-25T09:45:00.448Z,24.60
2017-08-25T09:47:28.721Z,24.90
2017-08-25T09:49:57.008Z,25.10
2017-08-25T09:52:25.276Z,25.30
2017-08-25T09:54:53.557Z,25.60
2017-08-25T09:57:21.827Z,25.70
2017-08-25T09:59:50.156Z,26.00
2017-08-25T10:02:18.426Z,26.10
2017-08-25T10:04:46.686Z,25.90
2017-08-25T10:07:14.980Z,25.60
2017-08-25T10:09:43.255Z,25.60
2017-08-25T10:12:12.304Z,25.90
2017-08-25T10:14:40.576Z,25.80
2017-08-25T10:17:09.623Z,26.20
2017-08-25T10:19:37.895Z,26.20
2017-08-25T10:22:06.465Z,26.10
2017-08-25T10:24:34.727Z,26.40
2017-08-25T10:27:03.008Z,26.60
2017-08-25T10:29:32.060Z,26.70
2017-08-25T10:32:00.328Z,26.70
2017-08-25T10:34:40.555Z,26.80
2017-08-25T10:37:20.773Z,27.00
2017-08-25T10:40:01.133Z,27.10
2017-08-25T10:42:41.282Z,26.90
2017-08-25T10:45:11.409Z,26.90
2017-08-25T10:47:39.677Z,26.70
2017-08-25T10:50:07.948Z,27.00
2017-08-25T10:52:37.007Z,27.50
2017-08-25T10:55:05.283Z,27.40
2017-08-25T10:57:33.571Z,27.70
2017-08-25T11:00:01.848Z,27.90
2017-08-25T11:02:30.134Z,27.90
2017-08-25T11:04:58.404Z,27.90
2017-08-25T11:07:26.679Z,27.90
2017-08-25T11:09:55.711Z,27.90
2017-08-25T11:12:24.020Z,27.80
2017-08-25T11:14:52.289Z,28.00
2017-08-25T11:17:20.563Z,28.00
2017-08-25T11:19:48.876Z,28.20
2017-08-25T11:22:17.140Z,28.20
2017-08-25T11:24:45.420Z,28.40
2017-08-25T11:29:48.975Z,28.80
2017-08-25T11:32:17.259Z,28.80
2017-08-25T11:34:45.524Z,29.10
2017-08-25T11:37:13.855Z,29.00
2017-08-25T11:39:42.119Z,29.00
2017-08-25T11:42:10.381Z,29.10
2017-08-25T11:44:38.668Z,29.30
2017-08-25T11:47:06.933Z,29.30
2017-08-25T11:49:35.247Z,29.20
2017-08-25T11:52:03.519Z,29.30
2017-08-25T11:54:31.795Z,29.40
2017-08-25T11:57:00.080Z,29.50
2017-08-25T11:59:28.351Z,29.60
2017-08-25T12:01:56.631Z,29.70
2017-08-25T12:04:25.659Z,29.80
2017-08-25T12:06:53.971Z,29.70
2017-08-25T12:09:23.000Z,29.60
2017-08-25T12:11:51.263Z,29.60
2017-08-25T12:14:19.562Z,29.70
2017-08-25T12:16:48.600Z,30.10
2017-08-25T12:19:16.919Z,30.00
2017-08-25T12:21:45.197Z,30.20
2017-08-25T12:24:13.472Z,30.20
2017-08-25T12:26:41.747Z,30.30
2017-08-25T12:29:10.023Z,30.10
2017-08-25T12:31:38.344Z,29.60
2017-08-25T12:34:06.607Z,29.50
2017-08-25T12:36:34.896Z,29.60
2017-08-25T12:39:03.183Z,29.60
2017-08-25T12:41:31.458Z,29.80
2017-08-25T12:44:00.531Z,30.60
2017-08-25T12:46:29.568Z,30.80
2017-08-25T12:48:57.883Z,30.80
2017-08-25T12:51:26.176Z,30.40
2017-08-25T12:53:54.448Z,30.40
2017-08-25T12:56:22.756Z,30.60
2017-08-25T12:58:51.033Z,30.50
2017-08-25T13:01:19.309Z,30.50
2017-08-25T13:03:47.592Z,30.70
2017-08-25T13:06:15.872Z,30.80
2017-08-25T13:08:44.207Z,30.90
2017-08-25T13:11:12.484Z,30.90
2017-08-25T13:13:40.752Z,30.90
2017-08-25T13:16:09.036Z,30.90
2017-08-25T13:18:37.307Z,30.80
2017-08-25T13:21:06.379Z,31.40
2017-08-25T13:23:34.659Z,31.40
2017-08-25T13:26:03.707Z,31.70
2017-08-25T13:28:31.996Z,31.70
2017-08-25T13:31:00.262Z,32.00
2017-08-25T13:33:28.720Z,31.30
2017-08-25T13:35:56.976Z,31.20
2017-08-25T13:38:25.244Z,31.50
2017-08-25T13:40:54.296Z,32.20
2017-08-25T13:43:22.561Z,32.20
2017-08-25T13:45:50.879Z,32.40
2017-08-25T13:48:19.156Z,32.00
2017-08-25T13:50:47.432Z,31.90
2017-08-25T13:53:15.828Z,32.30
2017-08-25T13:55:44.088Z,32.20
2017-08-25T13:58:13.464Z,32.50
2017-08-25T14:00:41.739Z,32.40
2017-08-25T14:03:10.776Z,32.60
2017-08-25T14:05:39.059Z,32.60
2017-08-25T14:08:07.336Z,33.10
2017-08-25T14:10:35.645Z,33.20
2017-08-25T14:13:03.920Z,33.20
2017-08-25T14:15:32.180Z,33.10
2017-08-25T14:18:00.474Z,33.10
2017-08-25T14:20:28.746Z,33.00
2017-08-25T14:22:57.200Z,32.70
2017-08-25T14:25:25.475Z,32.80
2017-08-25T14:27:53.751Z,32.70
2017-08-25T14:30:22.032Z,33.10
2017-08-25T14:32:50.303Z,33.40
2017-08-25T14:35:18.588Z,33.50
2017-08-25T14:37:46.871Z,33.40
2017-08-25T14:40:15.166Z,32.80
2017-08-25T14:42:43.448Z,32.10
2017-08-25T14:45:11.716Z,32.10
2017-08-25T14:47:39.975Z,31.90
2017-08-25T14:50:08.255Z,32.30
2017-08-25T14:52:36.542Z,32.20
2017-08-25T14:55:04.816Z,32.50
2017-08-25T14:57:33.860Z,32.90
2017-08-25T15:00:02.132Z,32.80
2017-08-25T15:02:30.407Z,32.90
2017-08-25T15:04:58.738Z,32.90
2017-08-25T15:07:26.992Z,32.60
2017-08-25T15:09:55.259Z,32.40
2017-08-25T15:12:23.550Z,32.10
2017-08-25T15:14:51.817Z,31.90
2017-08-25T15:17:20.132Z,31.70
2017-08-25T15:19:48.407Z,31.70
2017-08-25T15:22:16.676Z,32.00
2017-08-25T15:24:44.964Z,32.00
2017-08-25T15:27:13.992Z,32.10
2017-08-25T15:29:42.601Z,32.00
2017-08-25T15:32:10.872Z,32.30
2017-08-25T15:34:39.908Z,31.90
2017-08-25T15:37:08.188Z,31.80
2017-08-25T15:39:36.459Z,31.90
2017-08-25T15:42:04.767Z,31.90
2017-08-25T15:44:33.049Z,31.90
2017-08-25T15:47:01.319Z,32.00
2017-08-25T15:49:29.624Z,31.70
2017-08-25T15:51:57.900Z,31.40
2017-08-25T15:54:26.221Z,31.00
2017-08-25T15:56:54.489Z,30.90
2017-08-25T15:59:22.762Z,30.90
2017-08-25T16:01:51.043Z,30.70
2017-08-25T16:04:19.320Z,30.60
2017-08-25T16:06:47.645Z,30.50
2017-08-25T16:09:15.913Z,30.50
2017-08-25T16:11:44.184Z,30.30
2017-08-25T16:14:12.467Z,30.20
2017-08-25T16:16:40.740Z,30.00
2017-08-25T16:22:08.012Z,29.80
2017-08-25T16:24:36.325Z,29.70
2017-08-25T16:27:04.591Z,29.70
2017-08-25T16:29:33.112Z,29.50
2017-08-25T16:32:01.393Z,29.40
2017-08-25T16:34:29.701Z,29.40
2017-08-25T16:36:57.993Z,29.40
2017-08-25T16:39:26.256Z,29.30
2017-08-25T16:41:54.524Z,29.30
2017-08-25T16:44:22.891Z,29.10
2017-08-25T16:46:51.156Z,29.10
2017-08-25T16:49:19.459Z,29.00
2017-08-25T16:51:47.786Z,28.90
2017-08-25T16:54:16.804Z,28.70
2017-08-25T16:56:45.119Z,28.60
2017-08-25T16:59:14.154Z,28.50
2017-08-25T17:01:42.486Z,28.50
2017-08-25T17:04:10.769Z,28.30
2017-08-25T17:06:39.052Z,28.10
2017-08-25T17:09:07.341Z,28.00
2017-08-25T17:11:35.636Z,27.90
2017-08-25T17:14:03.956Z,27.80
2017-08-25T17:16:32.906Z,27.80
2017-08-25T17:19:01.396Z,27.70
2017-08-25T17:21:29.664Z,27.70
2017-08-25T17:23:57.946Z,27.70
2017-08-25T17:26:27.750Z,27.70
2017-08-25T17:28:56.009Z,27.70
2017-08-25T17:31:24.319Z,27.70
2017-08-25T17:33:52.587Z,27.60
2017-08-25T17:36:21.104Z,27.50
2017-08-25T17:38:49.396Z,27.40
2017-08-25T17:41:17.932Z,27.40
2017-08-25T17:43:46.243Z,27.30
2017-08-25T17:46:14.511Z,27.20
2017-08-25T17:48:42.825Z,27.10
2017-08-25T17:51:11.103Z,27.00
2017-08-25T17:53:39.367Z,26.80
2017-08-25T17:56:07.692Z,26.80
2017-08-25T17:58:35.977Z,26.70
2017-08-25T18:01:04.262Z,26.60
2017-08-25T18:03:34.588Z,26.40
2017-08-25T18:06:02.959Z,26.40
2017-08-25T18:08:31.252Z,26.20
2017-08-25T18:10:59.559Z,26.20
2017-08-25T18:13:27.809Z,26.10
2017-08-25T18:15:56.112Z,26.00
2017-08-25T18:18:24.380Z,25.90
2017-08-25T18:20:53.456Z,25.80
2017-08-25T18:23:21.804Z,25.70
2017-08-25T18:25:50.176Z,25.70
2017-08-25T18:28:18.464Z,25.60
2017-08-25T18:30:46.727Z,25.60
2017-08-25T18:33:15.035Z,25.50
2017-08-25T18:35:43.311Z,25.30
2017-08-25T18:38:11.591Z,25.30
2017-08-25T18:40:39.896Z,25.10
2017-08-25T18:43:08.167Z,25.10
2017-08-25T18:45:36.476Z,25.00
2017-08-25T18:48:04.760Z,25.00
2017-08-25T18:50:33.076Z,24.90
2017-08-25T18:53:01.351Z,24.90
2017-08-25T18:55:29.681Z,24.80
2017-08-25T18:57:58.384Z,24.70
2017-08-25T19:00:26.706Z,24.70
2017-08-25T19:02:54.967Z,24.80
2017-08-25T19:05:23.264Z,24.70
2017-08-25T19:07:52.312Z,24.70
2017-08-25T19:10:20.771Z,24.60
2017-08-25T19:12:49.088Z,24.70
2017-08-25T19:15:17.641Z,24.60
2017-08-25T19:17:45.951Z,24.50
2017-08-25T19:20:14.226Z,24.50
2017-08-25T19:22:42.561Z,24.50
2017-08-25T19:25:10.873Z,24.50
2017-08-25T19:27:39.337Z,24.50
2017-08-25T19:30:07.647Z,24.60
2017-08-25T19:35:11.412Z,24.40
2017-08-25T19:37:40.457Z,24.30
2017-08-25T19:40:08.732Z,24.20
2017-08-25T19:42:37.036Z,24.30
2017-08-25T19:45:05.367Z,24.30
2017-08-25T19:47:33.688Z,24.30
2017-08-25T19:50:01.964Z,24.30
2017-08-25T19:52:30.524Z,24.20
2017-08-25T19:54:58.854Z,24.10
2017-08-25T19:57:27.115Z,24.20
2017-08-25T19:59:55.447Z,24.10
2017-08-25T20:02:23.768Z,24.20
2017-08-25T20:04:52.036Z,24.30
2017-08-25T20:07:20.332Z,24.20
2017-08-25T20:09:48.619Z,23.90
2017-08-25T20:12:17.136Z,23.80
2017-08-25T20:14:45.403Z,23.60
2017-08-25T20:17:13.937Z,23.50
2017-08-25T20:19:42.245Z,23.40
2017-08-25T20:22:10.525Z,22.90
2017-08-25T20:24:38.892Z,22.60
2017-08-25T20:27:07.920Z,21.60
2017-08-25T20:29:36.195Z,21.60
2017-08-25T20:32:04.496Z,21.10
2017-08-25T20:34:32.786Z,20.60
2017-08-25T20:37:01.124Z,20.10
2017-08-25T20:39:29.404Z,19.60
2017-08-25T20:41:57.723Z,19.40
2017-08-25T20:44:26.012Z,19.10
2017-08-25T20:46:54.284Z,18.80
2017-08-25T20:49:22.579Z,18.70
2017-08-25T20:51:50.852Z,18.70
2017-08-25T20:54:19.120Z,18.70
2017-08-25T20:56:47.407Z,18.70
2017-08-25T20:59:16.438Z,18.70
2017-08-25T21:01:44.764Z,18.60
2017-08-25T21:04:13.039Z,18.70
2017-08-25T21:06:41.313Z,18.70
2017-08-25T21:09:09.629Z,18.80
2017-08-25T21:11:37.935Z,18.80
2017-08-25T21:14:06.384Z,18.80
2017-08-25T21:16:35.571Z,18.70
2017-08-25T21:19:03.832Z,18.90
2017-08-25T21:21:32.123Z,18.90
2017-08-25T21:24:00.432Z,18.90
2017-08-25T21:26:29.780Z,18.90
2017-08-25T21:28:58.064Z,18.90
2017-08-25T21:31:26.454Z,19.00
2017-08-25T21:33:54.716Z,19.00
2017-08-25T21:36:23.032Z,19.10
2017-08-25T21:38:51.400Z,19.00
2017-08-25T21:41:19.672Z,18.80
2017-08-25T21:43:47.960Z,18.70
2017-08-25T21:46:16.232Z,18.70
2017-08-25T21:48:44.774Z,18.60
2017-08-25T21:51:13.045Z,18.60
2017-08-25T21:53:41.308Z,18.60
2017-08-25T21:56:10.364Z,18.60
2017-08-25T21:58:38.633Z,18.50
2017-08-25T22:01:06.952Z,18.70
2017-08-25T22:03:35.224Z,18.80
2017-08-25T22:06:03.536Z,18.70
2017-08-25T22:08:32.152Z,18.80
2017-08-25T22:11:00.450Z,18.70
2017-08-25T22:13:28.751Z,18.60
2017-08-25T22:15:57.023Z,18.60
2017-08-25T22:18:25.302Z,18.50
2017-08-25T22:20:53.575Z,18.60
2017-08-25T22:23:21.851Z,18.70
2017-08-25T22:25:50.152Z,18.70
2017-08-25T22:28:19.203Z,18.50
2017-08-25T22:30:48.244Z,18.60
2017-08-25T22:33:16.532Z,18.50
2017-08-25T22:35:44.791Z,18.60
2017-08-25T22:38:13.253Z,18.70
2017-08-25T22:40:41.520Z,18.50
2017-08-25T22:43:09.788Z,18.40
2017-08-25T22:45:38.844Z,18.40
2017-08-25T22:48:07.121Z,18.40
2017-08-25T22:50:35.432Z,18.40
2017-08-25T22:53:03.711Z,18.40
2017-08-25T22:55:32.221Z,18.60
2017-08-25T22:58:00.599Z,18.60
2017-08-25T23:00:28.861Z,18.40
2017-08-25T23:02:57.264Z,18.40
2017-08-25T23:05:26.446Z,18.50
2017-08-25T23:07:54.723Z,18.60
2017-08-25T23:10:22.993Z,18.60
2017-08-25T23:12:51.270Z,18.70
2017-08-25T23:15:19.552Z,18.70
2017-08-25T23:17:48.579Z,18.60
2017-08-25T23:20:16.867Z,18.60
2017-08-25T23:22:45.151Z,18.60
2017-08-25T23:25:13.448Z,18.70
2017-08-25T23:27:41.776Z,18.60
2017-08-25T23:30:10.040Z,18.50
2017-08-25T23:32:38.307Z,18.50
2017-08-25T23:35:06.591Z,18.50
2017-08-25T23:37:35.063Z,18.40
2017-08-25T23:40:03.476Z,18.40
2017-08-25T23:42:31.755Z,18.50
2017-08-25T23:45:00.043Z,18.40
2017-08-25T23:47:28.320Z,18.30
2017-08-25T23:49:56.583Z,18.30
2017-08-25T23:52:24.895Z,18.40
2017-08-25T23:54:53.168Z,18.40
2017-08-25T23:57:21.444Z,18.50
2017-08-25T23:59:49.719Z,18.50
